Time;durP1;ratioP1;P1;durP2;ratioP2;P2;SDS_P1;SDS_P2;PMS_P1;PMS_P2;Temp;Humidity;BMP_temperature;BMP_pressure;BME280_temperature;BME280_humidity;BME280_pressure;Samples;Min_cycle;Max_cycle;Signal;HPM_P1;HPM_P2
2023/10/02 00:01:07;;;;;;;4.25;3.17;;;20.80;96.70;;;;;;4990298;28;20058;-80
2023/10/02 00:03:39;;;;;;;5.22;3.00;;;20.70;96.70;;;;;;5006656;28;20038;-81
2023/10/02 00:06:10;;;;;;;5.00;3.20;;;20.50;96.70;;;;;;4998447;28;20486;-80
2023/10/02 00:08:42;;;;;;;3.83;3.22;;;20.50;96.70;;;;;;4989598;28;20041;-81
2023/10/02 00:14:20;;;;;;;6.18;3.38;;;20.50;96.70;;;;;;5007216;28;20053;-80
2023/10/02 00:17:03;;;;;;;4.75;3.35;;;20.50;96.70;;;;;;5009470;28;20046;-80
2023/10/02 00:19:37;;;;;;;4.60;3.30;;;20.60;96.70;;;;;;4998131;28;20145;-81
2023/10/02 00:22:08;;;;;;;5.40;3.40;;;20.60;96.70;;;;;;5008310;28;20537;-80
2023/10/02 00:24:37;;;;;;;3.90;3.13;;;20.50;96.70;;;;;;5008651;28;20069;-81
2023/10/02 00:27:07;;;;;;;5.07;3.75;;;20.50;96.70;;;;;;5006169;28;20402;-81
2023/10/02 00:29:50;;;;;;;4.15;3.47;;;20.50;96.70;;;;;;5005190;28;20097;-80
2023/10/02 00:32:20;;;;;;;6.15;3.80;;;20.60;96.70;;;;;;5004940;28;20567;-80
2023/10/02 00:34:50;;;;;;;4.78;3.55;;;20.70;96.70;;;;;;5005193;28;20053;-81
2023/10/02 00:37:19;;;;;;;6.43;3.47;;;20.70;96.70;;;;;;4991444;28;20527;-80
2023/10/02 00:39:52;;;;;;;5.18;3.45;;;20.60;96.70;;;;;;4985647;28;20439;-80
2023/10/02 00:44:56;;;;;;;7.32;3.42;;;20.40;96.70;;;;;;5013303;28;20042;-79
2023/10/02 00:47:43;;;;;;;6.03;3.47;;;20.30;96.70;;;;;;4990033;28;20050;-81
2023/10/02 00:50:17;;;;;;;5.43;2.95;;;20.20;96.70;;;;;;5005436;28;20864;-81
2023/10/02 00:52:53;;;;;;;5.05;3.40;;;20.10;96.70;;;;;;5007315;28;20677;-81
2023/10/02 00:55:22;;;;;;;4.03;3.40;;;20.00;96.70;;;;;;4987573;28;20062;-81
2023/10/02 00:57:52;;;;;;;3.75;2.97;;;20.00;96.70;;;;;;5006559;28;20041;-80
2023/10/02 01:00:21;;;;;;;4.18;3.50;;;20.00;96.70;;;;;;5005546;28;20160;-81
2023/10/02 01:02:57;;;;;;;4.10;3.10;;;19.90;96.70;;;;;;5005832;28;20034;-81
2023/10/02 01:05:31;;;;;;;4.55;3.13;;;19.90;96.70;;;;;;5010683;28;20077;-81
2023/10/02 01:07:59;;;;;;;3.40;2.85;;;19.80;96.70;;;;;;5010452;28;20049;-80
2023/10/02 01:10:30;;;;;;;3.15;2.78;;;19.80;96.70;;;;;;4990192;28;20076;-81
2023/10/02 01:13:02;;;;;;;3.72;3.13;;;19.90;96.70;;;;;;5005506;28;20042;-81
2023/10/02 01:15:30;;;;;;;4.75;3.28;;;19.80;96.70;;;;;;5006318;28;20134;-81
2023/10/02 01:18:27;;;;;;;4.80;3.00;;;19.70;96.70;;;;;;5004948;28;20049;-81
2023/10/02 01:20:56;;;;;;;5.93;3.00;;;19.70;96.70;;;;;;5004314;28;20597;-80
2023/10/02 01:23:26;;;;;;;4.28;3.17;;;19.80;96.70;;;;;;5004491;28;20078;-80
2023/10/02 01:25:57;;;;;;;4.10;3.10;;;19.70;96.70;;;;;;5020634;28;20149;-81
2023/10/02 01:28:29;;;;;;;5.32;3.28;;;19.70;96.70;;;;;;5004228;28;20057;-80
2023/10/02 01:31:01;;;;;;;7.13;3.35;;;19.70;96.70;;;;;;5005413;28;20046;-80
2023/10/02 01:33:32;;;;;;;5.18;3.00;;;19.70;96.70;;;;;;5004477;28;20041;-81
2023/10/02 01:36:02;;;;;;;3.08;2.78;;;19.70;96.70;;;;;;5004346;28;20053;-79
2023/10/02 01:38:32;;;;;;;4.07;3.08;;;19.70;96.70;;;;;;5006340;28;20080;-81
2023/10/02 01:41:10;;;;;;;7.85;3.40;;;19.70;96.70;;;;;;5006304;28;20095;-80
2023/10/02 01:43:43;;;;;;;3.58;2.85;;;19.80;96.70;;;;;;5004623;28;20046;-80
2023/10/02 01:46:17;;;;;;;3.92;3.15;;;19.80;96.70;;;;;;4984817;28;20053;-80
2023/10/02 01:48:50;;;;;;;5.72;3.45;;;19.80;96.70;;;;;;5003788;28;20050;-77
2023/10/02 01:51:20;;;;;;;6.15;3.47;;;19.70;96.70;;;;;;5004465;28;20062;-77
2023/10/02 01:53:51;;;;;;;5.90;4.00;;;19.70;96.70;;;;;;5008048;28;20050;-78
2023/10/02 01:56:22;;;;;;;7.13;3.65;;;19.70;96.70;;;;;;5004824;28;20050;-77
2023/10/02 01:58:51;;;;;;;6.88;3.20;;;19.70;96.70;;;;;;4984175;28;20927;-78
2023/10/02 02:01:23;;;;;;;5.55;3.75;;;19.70;96.70;;;;;;5004597;28;20053;-76
2023/10/02 02:03:55;;;;;;;4.85;3.95;;;19.70;96.70;;;;;;5003513;28;20674;-77
2023/10/02 02:06:25;;;;;;;6.72;3.72;;;19.70;96.70;;;;;;5007709;28;20042;-77
2023/10/02 02:08:53;;;;;;;5.75;3.75;;;19.60;96.70;;;;;;5003342;28;20050;-77
2023/10/02 02:11:23;;;;;;;4.75;3.92;;;19.60;96.70;;;;;;5004595;28;20044;-77
2023/10/02 02:13:55;;;;;;;5.95;4.00;;;19.60;96.70;;;;;;5003169;28;20056;-77
2023/10/02 02:16:33;;;;;;;6.97;3.85;;;19.50;96.70;;;;;;5036029;28;20050;-77
2023/10/02 02:19:06;;;;;;;8.23;4.07;;;19.50;96.70;;;;;;5003349;28;20061;-77
2023/10/02 02:21:35;;;;;;;5.53;3.92;;;19.50;96.70;;;;;;5009479;28;20526;-77
2023/10/02 02:24:03;;;;;;;4.10;3.60;;;19.40;96.70;;;;;;5004711;28;20042;-77
2023/10/02 02:26:33;;;;;;;5.63;4.00;;;19.30;96.70;;;;;;5002983;28;20137;-77
2023/10/02 02:29:01;;;;;;;5.63;3.60;;;19.30;96.70;;;;;;5003088;28;20049;-77
2023/10/02 02:31:29;;;;;;;3.83;3.10;;;19.20;96.70;;;;;;5006282;28;20038;-78
2023/10/02 02:34:00;;;;;;;5.85;3.70;;;19.20;96.70;;;;;;5002674;28;20046;-78
2023/10/02 02:36:34;;;;;;;5.00;3.22;;;19.20;96.70;;;;;;5009484;28;20045;-77
2023/10/02 02:39:16;;;;;;;3.90;3.47;;;19.10;96.70;;;;;;4993833;28;20060;-77
2023/10/02 02:41:47;;;;;;;5.60;3.20;;;19.10;96.70;;;;;;5003650;28;20046;-77
2023/10/02 02:47:09;;;;;;;3.28;2.97;;;19.10;96.70;;;;;;5004492;28;20061;-78
2023/10/02 02:50:00;;;;;;;7.45;3.38;;;19.00;96.70;;;;;;4986768;28;20692;-79
2023/10/02 02:52:32;;;;;;;3.30;2.97;;;18.90;96.70;;;;;;5002617;28;20056;-77
2023/10/02 02:55:12;;;;;;;3.58;3.28;;;18.90;96.70;;;;;;5002682;28;20054;-77
2023/10/02 02:57:45;;;;;;;7.07;3.30;;;18.90;96.70;;;;;;5006362;28;20108;-77
2023/10/02 03:00:35;;;;;;;5.80;3.20;;;18.80;96.70;;;;;;5006491;28;20095;-78
2023/10/02 03:03:29;;;;;;;3.92;2.80;;;18.70;96.70;;;;;;5005953;28;20050;-76
2023/10/02 03:05:58;;;;;;;3.67;3.38;;;18.80;96.70;;;;;;5013312;28;20060;-77
2023/10/02 03:08:41;;;;;;;3.67;3.25;;;18.80;96.70;;;;;;5006494;28;20078;-77
2023/10/02 03:11:10;;;;;;;5.78;3.33;;;18.80;96.70;;;;;;4990528;28;20046;-77
2023/10/02 03:13:40;;;;;;;4.13;3.70;;;18.80;96.70;;;;;;5010587;28;20125;-80
2023/10/02 03:16:12;;;;;;;4.80;3.47;;;18.80;96.70;;;;;;5007916;28;20056;-80
2023/10/02 03:18:43;;;;;;;7.95;3.97;;;18.80;96.70;;;;;;5007649;28;20050;-81
2023/10/02 03:21:24;;;;;;;5.07;3.88;;;18.70;96.70;;;;;;5009293;28;20048;-81
2023/10/02 03:23:54;;;;;;;4.32;3.63;;;18.80;96.70;;;;;;4991503;28;20389;-80
2023/10/02 03:29:06;;;;;;;4.63;4.20;;;18.70;96.70;;;;;;5008152;28;20060;-81
2023/10/02 03:31:36;;;;;;;4.63;3.78;;;18.70;96.70;;;;;;5013737;28;20042;-81
2023/10/02 03:36:54;;;;;;;5.22;3.60;;;18.70;96.70;;;;;;5007607;28;20049;-81
2023/10/02 03:39:23;;;;;;;4.50;3.28;;;18.60;96.70;;;;;;4993961;28;20050;-80
2023/10/02 03:41:55;;;;;;;3.63;3.28;;;18.60;96.70;;;;;;5007294;28;20069;-81
2023/10/02 03:44:24;;;;;;;5.30;3.88;;;18.50;96.70;;;;;;4987467;28;20054;-81
2023/10/02 03:46:53;;;;;;;4.03;3.15;;;18.50;96.70;;;;;;5006655;28;20061;-81
2023/10/02 03:49:23;;;;;;;4.47;3.53;;;18.50;96.70;;;;;;5010561;28;20050;-81
2023/10/02 03:51:52;;;;;;;4.95;3.38;;;18.50;96.70;;;;;;4990636;28;20056;-81
2023/10/02 03:54:21;;;;;;;4.90;3.40;;;18.50;96.70;;;;;;4985810;28;20508;-79
2023/10/02 03:56:50;;;;;;;5.22;3.50;;;18.30;96.70;;;;;;5003584;28;20077;-80
2023/10/02 03:59:21;;;;;;;6.97;3.75;;;18.40;96.70;;;;;;5007442;28;20037;-80
2023/10/02 04:01:51;;;;;;;5.85;3.67;;;18.30;96.70;;;;;;5005838;28;20167;-81
2023/10/02 04:04:21;;;;;;;4.78;3.80;;;18.40;96.70;;;;;;5007323;28;20613;-80
2023/10/02 04:06:53;;;;;;;5.80;3.90;;;18.50;96.70;;;;;;5006120;28;20081;-81
2023/10/02 04:09:23;;;;;;;5.18;3.80;;;18.50;96.70;;;;;;5009371;28;20076;-81
2023/10/02 04:11:54;;;;;;;5.22;3.55;;;18.40;96.70;;;;;;5006443;28;20053;-80
2023/10/02 04:14:32;;;;;;;6.82;4.45;;;18.40;96.70;;;;;;5009293;28;20038;-81
2023/10/02 04:17:10;;;;;;;6.63;3.83;;;18.40;96.70;;;;;;5010972;28;20064;-80
2023/10/02 04:19:43;;;;;;;5.43;4.03;;;18.40;96.70;;;;;;5007347;28;20053;-81
2023/10/02 04:22:22;;;;;;;5.43;3.83;;;18.40;96.70;;;;;;5007955;28;20129;-81
2023/10/02 04:25:04;;;;;;;7.47;3.83;;;18.40;96.70;;;;;;5006444;28;20049;-81
2023/10/02 04:32:49;;;;;;;4.70;3.72;;;18.30;96.70;;;;;;5006545;28;20041;-81
2023/10/02 04:38:08;;;;;;;5.63;4.25;;;18.30;96.70;;;;;;5005956;28;20719;-81
2023/10/02 04:40:44;;;;;;;6.13;4.47;;;18.40;96.70;;;;;;5006080;28;20072;-81
2023/10/02 04:43:19;;;;;;;6.13;4.25;;;18.30;96.70;;;;;;5006597;28;20108;-81
2023/10/02 04:45:48;;;;;;;4.05;3.58;;;18.30;96.70;;;;;;5007048;28;20428;-79
2023/10/02 04:48:17;;;;;;;6.25;4.00;;;18.30;96.70;;;;;;5006020;28;20037;-81
2023/10/02 04:50:45;;;;;;;4.93;3.92;;;18.20;96.70;;;;;;5006301;28;20042;-79
2023/10/02 04:55:48;;;;;;;5.13;3.72;;;18.10;96.70;;;;;;4999209;28;20053;-81
2023/10/02 04:58:20;;;;;;;5.05;4.10;;;18.20;96.70;;;;;;5005705;28;20068;-81
2023/10/02 05:03:37;;;;;;;5.63;4.07;;;18.10;96.70;;;;;;5006810;28;20069;-81
2023/10/02 05:06:16;;;;;;;4.63;4.10;;;18.10;96.70;;;;;;5005992;28;20042;-81
2023/10/02 05:11:24;;;;;;;5.95;3.88;;;17.90;96.70;;;;;;5006541;28;20056;-81
2023/10/02 05:16:29;;;;;;;5.45;4.10;;;17.90;96.70;;;;;;5007562;28;20050;-82
2023/10/02 05:18:59;;;;;;;5.30;3.75;;;17.90;96.70;;;;;;5005572;28;20082;-81
2023/10/02 05:21:39;;;;;;;5.00;3.83;;;17.90;96.70;;;;;;5006167;28;20072;-81
2023/10/02 05:24:12;;;;;;;5.50;4.15;;;18.00;96.70;;;;;;5006609;28;20143;-80
2023/10/02 05:26:44;;;;;;;7.28;3.95;;;18.00;96.70;;;;;;4999424;28;20042;-81
2023/10/02 05:29:17;;;;;;;5.45;4.28;;;17.90;96.70;;;;;;4979833;28;20116;-80
2023/10/02 05:31:47;;;;;;;6.88;4.63;;;18.00;96.70;;;;;;4990178;28;20052;-81
2023/10/02 05:34:23;;;;;;;7.45;4.60;;;18.00;96.70;;;;;;5006618;28;20045;-80
2023/10/02 05:37:11;;;;;;;6.35;5.05;;;18.00;96.70;;;;;;5005800;28;20042;-80
2023/10/02 05:39:41;;;;;;;13.18;5.32;;;18.10;96.70;;;;;;5013076;28;20129;-81
2023/10/02 05:42:16;;;;;;;5.78;4.63;;;18.00;96.70;;;;;;5006202;28;20050;-81
2023/10/02 05:44:44;;;;;;;9.20;5.60;;;18.10;96.70;;;;;;5009641;28;20045;-81
2023/10/02 05:47:15;;;;;;;11.10;5.65;;;18.20;96.70;;;;;;5005753;28;20074;-81
2023/10/02 05:49:49;;;;;;;7.38;5.32;;;18.20;96.70;;;;;;5005400;28;20049;-82
2023/10/02 05:52:19;;;;;;;8.98;5.88;;;18.20;96.70;;;;;;5005181;28;20054;-80
2023/10/02 05:54:47;;;;;;;8.32;5.90;;;18.20;96.70;;;;;;5005903;28;20141;-80
2023/10/02 05:57:16;;;;;;;10.15;5.13;;;18.20;96.70;;;;;;5005420;28;20050;-80
2023/10/02 05:59:48;;;;;;;14.15;6.38;;;18.20;96.70;;;;;;5005404;28;20053;-80
2023/10/02 06:02:21;;;;;;;14.90;5.13;;;18.20;96.70;;;;;;5006639;28;20108;-80
2023/10/02 06:05:04;;;;;;;13.07;5.70;;;18.20;96.70;;;;;;5006762;28;20046;-80
2023/10/02 06:07:43;;;;;;;7.63;5.55;;;18.00;96.70;;;;;;5005254;28;20084;-81
2023/10/02 06:10:26;;;;;;;12.35;6.35;;;18.20;96.70;;;;;;4985447;28;20050;-81
2023/10/02 06:13:05;;;;;;;9.48;5.38;;;18.30;96.70;;;;;;5005384;28;20439;-81
2023/10/02 06:15:43;;;;;;;9.02;4.97;;;18.30;96.70;;;;;;4998276;28;20046;-80
2023/10/02 06:18:16;;;;;;;9.60;4.80;;;18.40;96.70;;;;;;5000971;28;20081;-80
2023/10/02 06:21:03;;;;;;;10.40;5.50;;;18.40;96.70;;;;;;5004819;28;20045;-80
2023/10/02 06:23:37;;;;;;;15.93;6.90;;;18.50;96.70;;;;;;5004519;28;20626;-81
2023/10/02 06:26:09;;;;;;;15.10;7.22;;;18.40;96.70;;;;;;5005787;28;20488;-81
2023/10/02 06:28:38;;;;;;;9.88;6.22;;;18.50;96.70;;;;;;5004624;28;20046;-81
2023/10/02 06:31:08;;;;;;;12.95;5.50;;;18.60;96.70;;;;;;5004839;28;20041;-80
2023/10/02 06:33:36;;;;;;;14.13;5.95;;;18.60;96.70;;;;;;5008620;28;20048;-81
2023/10/02 06:36:07;;;;;;;6.10;4.68;;;18.60;96.70;;;;;;5006089;28;20148;-81
2023/10/02 06:38:36;;;;;;;11.95;4.72;;;18.60;96.70;;;;;;5008775;28;20054;-80
2023/10/02 06:41:08;;;;;;;8.13;4.88;;;18.70;96.70;;;;;;5010101;28;20052;-80
2023/10/02 06:43:36;;;;;;;7.63;5.75;;;18.80;96.70;;;;;;5010371;28;20046;-80
2023/10/02 06:46:09;;;;;;;12.32;5.85;;;18.80;96.70;;;;;;5014328;28;20044;-80
2023/10/02 06:48:43;;;;;;;7.28;4.95;;;18.80;96.70;;;;;;4996042;28;21436;-81
2023/10/02 06:51:13;;;;;;;12.57;5.45;;;18.90;96.70;;;;;;5012108;28;20078;-80
2023/10/02 06:53:42;;;;;;;8.95;4.85;;;18.90;96.70;;;;;;5009317;28;20045;-81
2023/10/02 06:56:12;;;;;;;5.60;4.95;;;19.00;96.70;;;;;;5008496;28;20045;-81
2023/10/02 06:58:54;;;;;;;7.80;6.38;;;19.10;96.70;;;;;;5009729;28;20076;-80
2023/10/02 07:01:27;;;;;;;5.90;5.15;;;19.10;96.70;;;;;;5012821;28;20058;-83
2023/10/02 07:03:56;;;;;;;8.63;4.68;;;19.30;96.70;;;;;;5008962;28;20503;-83
2023/10/02 07:06:28;;;;;;;8.90;4.97;;;19.30;96.70;;;;;;5009532;28;20046;-82
2023/10/02 07:09:12;;;;;;;7.00;5.05;;;19.30;96.70;;;;;;5009209;28;20072;-80
2023/10/02 07:11:45;;;;;;;10.60;5.75;;;19.40;96.70;;;;;;5011210;28;20053;-82
2023/10/02 07:14:14;;;;;;;10.98;5.63;;;19.40;96.70;;;;;;5010259;28;20515;-84
2023/10/02 07:16:43;;;;;;;18.27;5.70;;;19.50;96.70;;;;;;5000064;28;20073;-80
2023/10/02 07:19:11;;;;;;;9.82;5.40;;;19.60;96.70;;;;;;4993156;28;20072;-82
2023/10/02 07:21:41;;;;;;;11.48;6.05;;;19.60;96.70;;;;;;4992714;28;20049;-80
2023/10/02 07:24:27;;;;;;;11.65;5.50;;;19.70;96.70;;;;;;5010322;28;20063;-80
2023/10/02 07:26:56;;;;;;;7.78;5.40;;;19.80;96.70;;;;;;5011970;28;20624;-78
2023/10/02 07:29:37;;;;;;;10.73;6.50;;;19.80;96.70;;;;;;4990598;28;20467;-79
2023/10/02 07:32:07;;;;;;;15.05;9.80;;;19.90;96.70;;;;;;4989827;28;20349;-79
2023/10/02 07:34:38;;;;;;;12.80;10.25;;;20.00;96.70;;;;;;5012420;28;20038;-80
2023/10/02 07:37:08;;;;;;;14.07;10.68;;;20.00;96.70;;;;;;4991952;28;20042;-80
2023/10/02 07:39:36;;;;;;;13.57;10.73;;;20.20;96.70;;;;;;5011228;28;20050;-80
2023/10/02 07:42:06;;;;;;;13.88;10.65;;;20.30;96.70;;;;;;5010345;28;20133;-81
2023/10/02 07:44:38;;;;;;;13.38;9.43;;;20.40;96.70;;;;;;4989494;28;20054;-81
2023/10/02 07:47:16;;;;;;;11.90;7.65;;;20.50;96.70;;;;;;5008957;28;20072;-80
2023/10/02 07:49:48;;;;;;;7.78;5.78;;;20.70;96.70;;;;;;5009410;28;20057;-80
2023/10/02 07:52:35;;;;;;;8.32;6.22;;;20.80;96.70;;;;;;5007701;28;20053;-80
2023/10/02 07:55:10;;;;;;;10.23;5.32;;;20.90;96.70;;;;;;4992272;28;20057;-80
2023/10/02 07:57:39;;;;;;;7.00;4.88;;;21.00;96.70;;;;;;5001249;28;20052;-80
2023/10/02 08:00:33;;;;;;;4.95;4.30;;;21.10;96.70;;;;;;5008132;28;20068;-80
2023/10/02 08:02:56;;;;;;;5.32;3.63;;;21.20;96.70;;;;;;5008392;28;20049;-80
2023/10/02 08:05:25;;;;;;;7.05;4.32;;;21.40;96.70;;;;;;5008450;28;20511;-80
2023/10/02 08:08:10;;;;;;;7.13;3.75;;;21.50;96.70;;;;;;5007166;28;20411;-80
2023/10/02 08:11:02;;;;;;;4.50;3.50;;;21.50;96.70;;;;;;4983806;28;20057;-80
2023/10/02 08:13:33;;;;;;;4.50;3.20;;;21.60;96.70;;;;;;4968038;28;20522;-80
2023/10/02 08:16:05;;;;;;;5.05;3.45;;;21.70;96.70;;;;;;4978760;28;20514;-80
2023/10/02 08:18:55;;;;;;;6.57;3.47;;;21.80;96.70;;;;;;4980447;28;20046;-82
2023/10/02 08:21:33;;;;;;;6.22;3.80;;;21.90;96.70;;;;;;4977113;28;20109;-81
2023/10/02 08:24:04;;;;;;;5.50;3.35;;;22.00;96.70;;;;;;4974359;28;20234;-81
2023/10/02 08:26:45;;;;;;;6.05;3.72;;;22.10;96.70;;;;;;4974998;28;20046;-81
2023/10/02 08:29:15;;;;;;;9.32;4.00;;;22.20;96.70;;;;;;4979714;28;20081;-81
2023/10/02 08:31:48;;;;;;;10.43;4.68;;;22.20;96.70;;;;;;4988240;28;20130;-83
2023/10/02 08:34:24;;;;;;;6.35;4.55;;;22.30;96.70;;;;;;4984082;28;20053;-76
2023/10/02 08:37:07;;;;;;;7.10;4.47;;;22.40;96.70;;;;;;4985542;28;20084;-80
2023/10/02 08:39:41;;;;;;;7.65;4.47;;;22.50;96.70;;;;;;4966040;28;20169;-81
2023/10/02 08:42:09;;;;;;;7.13;4.22;;;22.60;96.70;;;;;;4973720;28;20666;-79
2023/10/02 08:44:40;;;;;;;5.13;3.88;;;22.60;96.70;;;;;;4999913;28;20071;-80
2023/10/02 08:47:24;;;;;;;6.47;3.85;;;22.70;96.70;;;;;;4970222;28;20536;-81
2023/10/02 08:50:05;;;;;;;8.13;3.85;;;22.80;96.70;;;;;;5008220;28;20046;-81
2023/10/02 08:52:41;;;;;;;8.48;3.88;;;23.00;96.70;;;;;;5008359;28;20069;-81
2023/10/02 08:55:36;;;;;;;6.47;4.13;;;23.10;96.70;;;;;;5005353;28;20050;-80
2023/10/02 08:58:16;;;;;;;5.85;4.22;;;23.10;96.70;;;;;;5002702;28;20548;-80
2023/10/02 09:03:42;;;;;;;5.57;4.32;;;23.20;96.70;;;;;;5003230;28;20381;-81
2023/10/02 09:09:21;;;;;;;7.47;4.40;;;23.40;96.70;;;;;;5012147;28;20053;-79
2023/10/02 09:11:57;;;;;;;6.60;4.35;;;23.40;96.70;;;;;;5006079;28;20496;-82
2023/10/02 09:17:12;;;;;;;8.40;4.15;;;23.60;96.70;;;;;;5007118;28;20065;-82
2023/10/02 09:19:49;;;;;;;5.45;4.00;;;23.80;96.70;;;;;;5007334;28;20046;-83
2023/10/02 09:22:18;;;;;;;9.65;4.28;;;23.90;96.70;;;;;;5008649;28;20084;-82
2023/10/02 09:24:57;;;;;;;6.93;4.25;;;24.10;96.70;;;;;;4989618;28;20045;-82
2023/10/02 09:27:28;;;;;;;6.70;4.15;;;24.30;96.70;;;;;;4999003;28;20061;-83
2023/10/02 09:32:49;;;;;;;5.68;4.10;;;24.40;96.70;;;;;;5004034;28;20096;-79
2023/10/02 09:35:32;;;;;;;;;;;24.50;96.70;;;;;;4988314;28;20054;-79
2023/10/02 09:38:24;;;;;;;6.75;4.50;;;24.60;96.70;;;;;;5004860;28;19929;-78
2023/10/02 09:43:35;;;;;;;6.60;3.85;;;24.70;96.70;;;;;;5007060;28;21105;-81
2023/10/02 09:46:15;;;;;;;7.78;4.32;;;25.00;96.70;;;;;;5006851;28;20124;-82
2023/10/02 09:49:01;;;;;;;6.20;4.00;;;25.20;96.70;;;;;;5004750;28;20503;-80
2023/10/02 09:52:09;;;;;;;5.80;3.92;;;25.30;96.70;;;;;;4998450;28;20478;-79
2023/10/02 09:54:40;;;;;;;7.72;4.35;;;25.40;96.70;;;;;;5004670;28;20834;-80
2023/10/02 09:57:16;;;;;;;7.25;3.47;;;25.60;96.70;;;;;;4998165;28;20046;-79
2023/10/02 09:59:46;;;;;;;5.47;3.42;;;25.70;96.70;;;;;;5005035;28;20484;-78
2023/10/02 10:08:19;;;;;;;4.57;3.60;;;25.90;96.70;;;;;;5007690;28;20655;-80
2023/10/02 10:10:57;;;;;;;6.38;3.30;;;26.00;96.70;;;;;;5007248;28;20046;-79
2023/10/02 10:13:32;;;;;;;6.28;3.80;;;26.30;96.70;;;;;;5008162;28;20085;-80
2023/10/02 10:16:36;;;;;;;6.18;4.03;;;26.50;96.70;;;;;;4988966;28;20081;-79
2023/10/02 10:22:01;;;;;;;8.13;3.53;;;26.70;96.70;;;;;;5014822;28;20100;-81
2023/10/02 10:27:55;;;;;;;6.55;3.42;;;26.90;96.70;;;;;;5011442;28;20387;-81
2023/10/02 10:30:43;;;;;;;6.95;3.47;;;27.10;96.70;;;;;;5008798;28;20454;-81
2023/10/02 10:33:40;;;;;;;6.03;3.63;;;27.30;96.70;;;;;;5009400;28;20407;-81
2023/10/02 10:36:37;;;;;;;6.97;4.03;;;27.50;96.70;;;;;;5003404;28;20046;-81
2023/10/02 10:39:44;;;;;;;6.53;3.25;;;27.70;96.70;;;;;;5009085;28;20050;-80
2023/10/02 10:42:12;;;;;;;6.43;3.35;;;27.80;96.70;;;;;;4986503;28;20407;-79
2023/10/02 10:44:44;;;;;;;8.20;3.92;;;27.80;96.70;;;;;;5007718;28;20064;-81
2023/10/02 10:47:14;;;;;;;11.88;4.07;;;27.90;96.70;;;;;;5007920;28;20073;-80
2023/10/02 10:49:53;;;;;;;8.85;4.13;;;27.80;96.70;;;;;;5008126;28;20046;-81
2023/10/02 10:52:36;;;;;;;11.13;4.32;;;27.70;96.70;;;;;;5007058;28;20049;-80
2023/10/02 10:55:32;;;;;;;7.70;4.45;;;27.90;96.70;;;;;;5007053;28;20072;-80
2023/10/02 10:58:01;;;;;;;7.25;3.83;;;28.10;96.70;;;;;;5007191;28;20073;-80
2023/10/02 11:00:41;;;;;;;7.20;4.03;;;28.30;96.70;;;;;;5007529;28;20442;-80
2023/10/02 11:03:19;;;;;;;7.10;3.67;;;28.40;96.70;;;;;;5006241;28;20054;-81
2023/10/02 11:05:49;;;;;;;8.30;3.92;;;28.60;96.70;;;;;;4998416;28;20057;-80
2023/10/02 11:08:24;;;;;;;3.97;3.30;;;28.60;96.70;;;;;;5005570;28;20463;-81
2023/10/02 11:11:09;;;;;;;5.32;3.38;;;28.50;96.70;;;;;;5005398;28;20124;-80
2023/10/02 11:13:58;;;;;;;5.47;3.40;;;28.60;96.70;;;;;;4989709;28;20054;-81
2023/10/02 11:16:31;;;;;;;5.97;3.45;;;28.70;96.70;;;;;;5006046;28;20052;-80
2023/10/02 11:22:15;;;;;;;4.75;2.97;;;29.00;96.70;;;;;;4999280;28;20054;-81
2023/10/02 11:24:45;;;;;;;4.43;2.75;;;29.00;96.70;;;;;;5005007;28;20141;-81
2023/10/02 11:27:18;;;;;;;7.20;3.83;;;28.90;96.70;;;;;;5006822;28;20042;-80
2023/10/02 11:30:03;;;;;;;3.38;2.50;;;28.90;96.70;;;;;;5005590;28;20050;-81
2023/10/02 11:33:08;;;;;;;5.38;2.60;;;29.10;96.70;;;;;;4989277;28;20073;-81
2023/10/02 11:35:41;;;;;;;4.97;2.55;;;29.30;96.70;;;;;;4998531;28;20062;-80
2023/10/02 11:38:11;;;;;;;5.63;2.50;;;29.60;96.70;;;;;;4988760;28;20056;-80
2023/10/02 11:40:43;;;;;;;5.63;3.08;;;29.70;96.70;;;;;;5005462;28;20069;-81
2023/10/02 11:43:12;;;;;;;4.60;2.55;;;29.80;96.70;;;;;;5007395;28;20049;-81
2023/10/02 11:45:40;;;;;;;3.15;2.50;;;29.90;96.70;;;;;;5005283;28;20037;-81
2023/10/02 11:48:09;;;;;;;5.63;2.50;;;29.90;96.70;;;;;;5005885;28;20641;-81
2023/10/02 11:50:38;;;;;;;5.63;2.83;;;29.90;96.70;;;;;;4989266;28;20139;-80
2023/10/02 11:53:05;;;;;;;4.53;2.70;;;29.90;96.70;;;;;;5005116;28;20070;-81
2023/10/02 11:55:35;;;;;;;4.28;2.58;;;30.00;96.70;;;;;;5006651;28;20103;-81
2023/10/02 11:58:04;;;;;;;7.18;3.30;;;30.00;96.70;;;;;;5006277;28;20046;-79
2023/10/02 12:00:33;;;;;;;3.22;2.67;;;30.20;96.70;;;;;;4956288;28;1379291;-81
2023/10/02 12:03:00;;;;;;;5.20;2.90;;;30.40;96.70;;;;;;5000184;28;20062;-84
2023/10/02 12:05:32;;;;;;;2.97;2.40;;;30.60;96.70;;;;;;5011306;28;20121;-81
2023/10/02 12:08:03;;;;;;;5.03;2.97;;;30.90;96.70;;;;;;5017022;28;20045;-84
2023/10/02 12:10:39;;;;;;;6.53;3.08;;;31.00;96.70;;;;;;5008970;28;20092;-83
2023/10/02 12:13:08;;;;;;;3.85;2.53;;;31.10;96.70;;;;;;5008906;28;20085;-85
2023/10/02 12:15:38;;;;;;;6.38;2.92;;;31.00;96.70;;;;;;5009639;28;20851;-83
2023/10/02 12:18:06;;;;;;;5.95;2.78;;;30.90;96.70;;;;;;5001386;28;20180;-85
2023/10/02 12:20:39;;;;;;;3.83;2.72;;;30.80;96.70;;;;;;4990908;28;20041;-83
2023/10/02 12:23:09;;;;;;;5.50;2.75;;;30.80;96.70;;;;;;5012200;28;20515;-83
2023/10/02 12:25:45;;;;;;;4.50;2.67;;;31.00;96.70;;;;;;5008054;28;20558;-84
2023/10/02 12:28:17;;;;;;;3.85;2.50;;;31.20;96.70;;;;;;5007998;28;20056;-85
2023/10/02 12:30:45;;;;;;;4.60;2.58;;;31.40;96.70;;;;;;5006564;28;20496;-83
2023/10/02 12:33:14;;;;;;;4.47;3.15;;;31.30;96.70;;;;;;5006289;28;20976;-85
2023/10/02 12:35:42;;;;;;;3.72;2.47;;;31.10;96.70;;;;;;5007009;28;20045;-82
2023/10/02 12:38:13;;;;;;;6.40;3.13;;;31.10;96.70;;;;;;5007581;28;20224;-84
2023/10/02 12:40:43;;;;;;;3.63;2.72;;;31.10;96.70;;;;;;4989767;28;20058;-81
2023/10/02 12:43:12;;;;;;;4.63;2.65;;;31.30;96.70;;;;;;5006399;28;20518;-80
2023/10/02 12:45:40;;;;;;;3.45;2.70;;;31.50;96.70;;;;;;5013019;28;20322;-82
2023/10/02 12:48:09;;;;;;;4.25;2.90;;;31.50;96.70;;;;;;5007618;28;20128;-81
2023/10/02 12:50:38;;;;;;;4.15;2.58;;;31.50;96.70;;;;;;5013129;28;20502;-84
2023/10/02 12:53:07;;;;;;;3.30;2.17;;;31.60;96.70;;;;;;5005934;28;20230;-84
2023/10/02 12:55:36;;;;;;;4.35;2.65;;;31.70;96.70;;;;;;5005601;28;20088;-85
2023/10/02 12:58:06;;;;;;;3.63;2.53;;;31.80;96.70;;;;;;5006350;28;20053;-83
2023/10/02 13:00:35;;;;;;;3.78;2.50;;;31.90;96.70;;;;;;5005932;28;20108;-82
2023/10/02 13:03:04;;;;;;;5.32;2.50;;;31.90;96.70;;;;;;5005833;28;20072;-83
2023/10/02 13:05:33;;;;;;;3.08;2.20;;;31.90;96.70;;;;;;5004838;28;20041;-81
2023/10/02 13:08:02;;;;;;;2.78;2.25;;;31.80;96.70;;;;;;5005683;28;20139;-81
2023/10/02 13:10:30;;;;;;;2.63;2.03;;;31.80;96.70;;;;;;4988841;28;20053;-82
2023/10/02 13:13:00;;;;;;;3.63;2.35;;;31.80;96.70;;;;;;5006218;28;20125;-82
2023/10/02 13:15:30;;;;;;;4.10;2.28;;;32.10;96.70;;;;;;5037802;28;20140;-83
2023/10/02 13:17:59;;;;;;;3.80;2.20;;;32.10;96.70;;;;;;5011958;28;20129;-84
2023/10/02 13:20:27;;;;;;;4.30;2.25;;;32.30;96.70;;;;;;5006800;28;20053;-84
2023/10/02 13:22:55;;;;;;;4.90;2.50;;;32.30;96.70;;;;;;5006944;28;20045;-82
2023/10/02 13:25:26;;;;;;;4.90;2.10;;;32.40;96.70;;;;;;5005345;28;20149;-83
2023/10/02 13:27:55;;;;;;;3.58;2.30;;;32.50;96.70;;;;;;5008952;28;20088;-82
2023/10/02 13:30:30;;;;;;;4.28;2.50;;;32.50;96.70;;;;;;5007294;28;20034;-82
2023/10/02 13:33:00;;;;;;;3.33;2.35;;;32.50;96.70;;;;;;5005391;28;20582;-82
2023/10/02 13:35:32;;;;;;;2.55;2.33;;;32.50;96.70;;;;;;5005316;28;20050;-81
2023/10/02 13:38:01;;;;;;;3.78;2.10;;;32.50;96.70;;;;;;5005586;28;20046;-82
2023/10/02 13:40:31;;;;;;;5.45;2.35;;;32.60;96.70;;;;;;5006465;28;20054;-82
2023/10/02 13:43:00;;;;;;;4.13;2.30;;;32.70;96.70;;;;;;5004359;28;20696;-82
2023/10/02 13:45:29;;;;;;;4.63;2.50;;;32.70;96.70;;;;;;5007075;28;20049;-83
2023/10/02 13:47:59;;;;;;;3.53;2.22;;;32.70;96.70;;;;;;4989881;28;20059;-83
2023/10/02 13:50:28;;;;;;;5.03;2.72;;;32.60;96.70;;;;;;5007322;28;20034;-83
2023/10/02 13:52:58;;;;;;;3.88;2.72;;;32.50;96.70;;;;;;5005926;28;20061;-83
2023/10/02 13:55:27;;;;;;;6.45;2.80;;;32.50;96.70;;;;;;5006236;28;20046;-84
2023/10/02 13:57:56;;;;;;;5.28;2.90;;;32.60;96.70;;;;;;5008495;28;20042;-82
2023/10/02 14:00:26;;;;;;;6.18;2.50;;;32.60;96.70;;;;;;5005155;28;20049;-82
2023/10/02 14:02:55;;;;;;;4.10;2.55;;;32.70;96.70;;;;;;5006877;28;20107;-83
2023/10/02 14:05:29;;;;;;;8.48;2.72;;;32.80;96.70;;;;;;4989268;28;20331;-82
2023/10/02 14:07:58;;;;;;;4.18;2.50;;;32.80;96.70;;;;;;5013675;28;20512;-81
2023/10/02 14:10:26;;;;;;;4.65;2.53;;;33.00;96.70;;;;;;5009546;28;20050;-83
2023/10/02 14:12:54;;;;;;;5.45;2.95;;;33.20;96.70;;;;;;5004503;28;20415;-82
2023/10/02 14:15:25;;;;;;;6.22;3.03;;;33.30;96.70;;;;;;5005310;28;20084;-83
2023/10/02 14:17:55;;;;;;;4.38;2.70;;;33.40;96.70;;;;;;5008916;28;20037;-82
2023/10/02 14:20:25;;;;;;;2.65;2.20;;;33.60;96.70;;;;;;4989588;28;20080;-86